sensor_id;sensor_type;location;lat;lon;timestamp;pressure;altitude;pressure_sealevel;temperature;humidity
32933;BME280;19444;50.518;10.870;2022-11-20T00:00:27;96078.59;;;-9.01;100.00
32933;BME280;19444;50.518;10.870;2022-11-20T00:03:24;96066.03;;;-8.91;100.00
32933;BME280;19444;50.518;10.870;2022-11-20T00:06:21;96064.41;;;-9.11;100.00
32933;BME280;19444;50.518;10.870;2022-11-20T00:09:19;96062.81;;;-9.06;100.00
32933;BME280;19444;50.518;10.870;2022-11-20T00:12:16;96061.16;;;-9.20;100.00
32933;BME280;19444;50.518;10.870;2022-11-20T00:15:13;96062.41;;;-9.09;100.00
32933;BME280;19444;50.518;10.870;2022-11-20T00:18:10;96057.06;;;-8.95;100.00
32933;BME280;19444;50.518;10.870;2022-11-20T00:21:19;96056.63;;;-9.11;100.00
32933;BME280;19444;50.518;10.870;2022-11-20T00:24:17;96057.97;;;-9.15;100.00
32933;BME280;19444;50.518;10.870;2022-11-20T00:27:14;96058.41;;;-9.12;100.00
32933;BME280;19444;50.518;10.870;2022-11-20T00:30:11;96062.97;;;-9.21;100.00
32933;BME280;19444;50.518;10.870;2022-11-20T00:33:10;96056.97;;;-9.21;100.00
32933;BME280;19444;50.518;10.870;2022-11-20T00:36:17;96056.19;;;-9.15;100.00
32933;BME280;19444;50.518;10.870;2022-11-20T00:39:14;96062.38;;;-9.16;100.00
32933;BME280;19444;50.518;10.870;2022-11-20T00:42:11;96060.56;;;-9.22;100.00
32933;BME280;19444;50.518;10.870;2022-11-20T00:45:08;96053.81;;;-9.10;100.00
32933;BME280;19444;50.518;10.870;2022-11-20T00:48:05;96048.22;;;-9.13;100.00
32933;BME280;19444;50.518;10.870;2022-11-20T00:51:02;96059.50;;;-9.41;100.00
32933;BME280;19444;50.518;10.870;2022-11-20T00:53:59;96054.53;;;-9.36;100.00
32933;BME280;19444;50.518;10.870;2022-11-20T00:56:56;96063.78;;;-9.20;100.00
32933;BME280;19444;50.518;10.870;2022-11-20T00:59:53;96077.75;;;-9.21;100.00
32933;BME280;19444;50.518;10.870;2022-11-20T01:02:50;96073.59;;;-9.09;100.00
32933;BME280;19444;50.518;10.870;2022-11-20T01:05:47;96062.13;;;-9.28;100.00
32933;BME280;19444;50.518;10.870;2022-11-20T01:08:45;96065.38;;;-9.19;100.00
32933;BME280;19444;50.518;10.870;2022-11-20T01:11:44;96073.91;;;-9.32;100.00
32933;BME280;19444;50.518;10.870;2022-11-20T01:14:41;96064.34;;;-9.25;100.00
32933;BME280;19444;50.518;10.870;2022-11-20T01:17:38;96073.13;;;-9.26;100.00
32933;BME280;19444;50.518;10.870;2022-11-20T01:20:35;96076.50;;;-9.25;100.00
32933;BME280;19444;50.518;10.870;2022-11-20T01:23:34;96078.81;;;-9.02;100.00
32933;BME280;19444;50.518;10.870;2022-11-20T01:26:34;96084.88;;;-9.30;100.00
32933;BME280;19444;50.518;10.870;2022-11-20T01:29:31;96089.28;;;-9.30;100.00
32933;BME280;19444;50.518;10.870;2022-11-20T01:32:28;96093.41;;;-9.42;100.00
32933;BME280;19444;50.518;10.870;2022-11-20T01:35:25;96094.88;;;-9.27;100.00
32933;BME280;19444;50.518;10.870;2022-11-20T01:38:22;96091.59;;;-9.42;100.00
32933;BME280;19444;50.518;10.870;2022-11-20T01:41:19;96092.06;;;-9.32;100.00
32933;BME280;19444;50.518;10.870;2022-11-20T01:47:52;96076.31;;;-9.24;100.00
32933;BME280;19444;50.518;10.870;2022-11-20T01:50:51;96076.66;;;-9.33;100.00
32933;BME280;19444;50.518;10.870;2022-11-20T01:53:51;96080.69;;;-9.31;100.00
32933;BME280;19444;50.518;10.870;2022-11-20T01:56:53;96072.75;;;-9.23;100.00
32933;BME280;19444;50.518;10.870;2022-11-20T02:00:04;96068.00;;;-8.99;100.00
32933;BME280;19444;50.518;10.870;2022-11-20T02:03:13;96064.94;;;-9.29;100.00
32933;BME280;19444;50.518;10.870;2022-11-20T02:06:30;96052.84;;;-9.02;100.00
32933;BME280;19444;50.518;10.870;2022-11-20T02:09:29;96048.03;;;-9.05;100.00
32933;BME280;19444;50.518;10.870;2022-11-20T02:12:27;96035.66;;;-8.97;100.00
32933;BME280;19444;50.518;10.870;2022-11-20T02:15:43;96035.31;;;-8.80;100.00
32933;BME280;19444;50.518;10.870;2022-11-20T02:18:42;96039.53;;;-8.66;100.00
32933;BME280;19444;50.518;10.870;2022-11-20T02:25:04;96029.31;;;-8.74;100.00
32933;BME280;19444;50.518;10.870;2022-11-20T02:28:04;96023.53;;;-8.70;100.00
32933;BME280;19444;50.518;10.870;2022-11-20T02:31:01;96017.13;;;-8.61;100.00
32933;BME280;19444;50.518;10.870;2022-11-20T02:33:58;96009.53;;;-8.69;100.00
32933;BME280;19444;50.518;10.870;2022-11-20T02:36:57;96010.34;;;-8.75;100.00
32933;BME280;19444;50.518;10.870;2022-11-20T02:39:54;96008.97;;;-8.64;100.00
32933;BME280;19444;50.518;10.870;2022-11-20T02:42:55;96013.56;;;-8.66;100.00
32933;BME280;19444;50.518;10.870;2022-11-20T02:45:52;96011.75;;;-8.66;100.00
32933;BME280;19444;50.518;10.870;2022-11-20T02:48:49;96015.34;;;-8.53;100.00
32933;BME280;19444;50.518;10.870;2022-11-20T02:51:46;96013.94;;;-8.63;100.00
32933;BME280;19444;50.518;10.870;2022-11-20T02:54:43;96019.72;;;-8.34;100.00
32933;BME280;19444;50.518;10.870;2022-11-20T02:57:40;96019.34;;;-8.44;100.00
32933;BME280;19444;50.518;10.870;2022-11-20T03:00:37;96012.47;;;-8.06;100.00
32933;BME280;19444;50.518;10.870;2022-11-20T03:03:33;96007.47;;;-8.07;100.00
32933;BME280;19444;50.518;10.870;2022-11-20T03:06:31;96001.06;;;-7.85;100.00
32933;BME280;19444;50.518;10.870;2022-11-20T03:09:28;95994.28;;;-7.99;100.00
32933;BME280;19444;50.518;10.870;2022-11-20T03:12:25;95994.28;;;-7.99;100.00
32933;BME280;19444;50.518;10.870;2022-11-20T03:15:23;95989.28;;;-8.00;100.00
32933;BME280;19444;50.518;10.870;2022-11-20T03:18:20;95987.69;;;-8.15;100.00
32933;BME280;19444;50.518;10.870;2022-11-20T03:21:17;95988.31;;;-8.19;100.00
32933;BME280;19444;50.518;10.870;2022-11-20T03:24:14;95982.91;;;-8.18;100.00
32933;BME280;19444;50.518;10.870;2022-11-20T03:27:11;95981.50;;;-8.14;100.00
32933;BME280;19444;50.518;10.870;2022-11-20T03:30:09;95979.69;;;-8.00;100.00
32933;BME280;19444;50.518;10.870;2022-11-20T03:33:06;95979.06;;;-7.95;100.00
32933;BME280;19444;50.518;10.870;2022-11-20T03:36:09;95981.84;;;-7.90;100.00
32933;BME280;19444;50.518;10.870;2022-11-20T03:39:06;95976.63;;;-7.77;100.00
32933;BME280;19444;50.518;10.870;2022-11-20T03:42:03;95971.94;;;-7.62;100.00
32933;BME280;19444;50.518;10.870;2022-11-20T03:45:20;95982.25;;;-7.42;100.00
32933;BME280;19444;50.518;10.870;2022-11-20T03:48:17;95986.31;;;-7.53;100.00
32933;BME280;19444;50.518;10.870;2022-11-20T03:51:16;95985.47;;;-7.40;100.00
32933;BME280;19444;50.518;10.870;2022-11-20T03:54:13;95986.00;;;-7.25;100.00
32933;BME280;19444;50.518;10.870;2022-11-20T03:57:10;95974.78;;;-7.25;100.00
32933;BME280;19444;50.518;10.870;2022-11-20T04:00:08;95987.75;;;-7.12;100.00
32933;BME280;19444;50.518;10.870;2022-11-20T04:03:05;95981.44;;;-7.29;100.00
32933;BME280;19444;50.518;10.870;2022-11-20T04:06:13;95982.94;;;-7.15;100.00
32933;BME280;19444;50.518;10.870;2022-11-20T04:09:10;95984.16;;;-7.18;100.00
32933;BME280;19444;50.518;10.870;2022-11-20T04:12:07;95988.31;;;-7.10;100.00
32933;BME280;19444;50.518;10.870;2022-11-20T04:15:04;95988.69;;;-7.06;100.00
32933;BME280;19444;50.518;10.870;2022-11-20T04:18:01;95978.13;;;-7.11;100.00
32933;BME280;19444;50.518;10.870;2022-11-20T04:20:59;95975.84;;;-7.01;100.00
32933;BME280;19444;50.518;10.870;2022-11-20T04:23:56;95974.00;;;-6.94;100.00
32933;BME280;19444;50.518;10.870;2022-11-20T04:26:53;95961.94;;;-6.89;100.00
32933;BME280;19444;50.518;10.870;2022-11-20T04:29:51;95972.91;;;-6.80;100.00
32933;BME280;19444;50.518;10.870;2022-11-20T04:32:47;95966.31;;;-6.82;100.00
32933;BME280;19444;50.518;10.870;2022-11-20T04:35:47;95964.66;;;-6.77;100.00
32933;BME280;19444;50.518;10.870;2022-11-20T04:38:44;95954.75;;;-6.68;100.00
32933;BME280;19444;50.518;10.870;2022-11-20T04:41:41;95946.09;;;-6.62;100.00
32933;BME280;19444;50.518;10.870;2022-11-20T04:44:39;95954.19;;;-6.70;100.00
32933;BME280;19444;50.518;10.870;2022-11-20T04:47:36;95948.19;;;-6.46;100.00
32933;BME280;19444;50.518;10.870;2022-11-20T04:50:33;95945.78;;;-6.47;100.00
32933;BME280;19444;50.518;10.870;2022-11-20T04:53:30;95940.81;;;-6.49;100.00
32933;BME280;19444;50.518;10.870;2022-11-20T04:56:27;95939.06;;;-6.37;100.00
32933;BME280;19444;50.518;10.870;2022-11-20T04:59:24;95938.22;;;-6.31;100.00
32933;BME280;19444;50.518;10.870;2022-11-20T05:02:21;95939.38;;;-6.26;100.00
32933;BME280;19444;50.518;10.870;2022-11-20T05:05:18;95930.59;;;-6.32;100.00
32933;BME280;19444;50.518;10.870;2022-11-20T05:08:15;95927.19;;;-6.33;100.00
32933;BME280;19444;50.518;10.870;2022-11-20T05:11:16;95922.38;;;-6.29;100.00
32933;BME280;19444;50.518;10.870;2022-11-20T05:14:13;95918.03;;;-6.17;100.00
32933;BME280;19444;50.518;10.870;2022-11-20T05:17:11;95934.03;;;-6.13;100.00
32933;BME280;19444;50.518;10.870;2022-11-20T05:20:09;95936.34;;;-6.05;100.00
32933;BME280;19444;50.518;10.870;2022-11-20T05:23:06;95943.81;;;-6.09;100.00
32933;BME280;19444;50.518;10.870;2022-11-20T05:26:06;95948.88;;;-5.95;100.00
32933;BME280;19444;50.518;10.870;2022-11-20T05:29:03;95957.72;;;-6.15;100.00
32933;BME280;19444;50.518;10.870;2022-11-20T05:32:00;95959.13;;;-5.94;100.00
32933;BME280;19444;50.518;10.870;2022-11-20T05:34:57;95952.19;;;-5.88;100.00
32933;BME280;19444;50.518;10.870;2022-11-20T05:37:54;95957.56;;;-5.83;100.00
32933;BME280;19444;50.518;10.870;2022-11-20T05:40:51;95950.28;;;-5.93;100.00
32933;BME280;19444;50.518;10.870;2022-11-20T05:43:49;95936.13;;;-6.04;100.00
32933;BME280;19444;50.518;10.870;2022-11-20T05:46:46;95940.91;;;-5.82;100.00
32933;BME280;19444;50.518;10.870;2022-11-20T05:49:43;95928.72;;;-5.88;100.00
32933;BME280;19444;50.518;10.870;2022-11-20T05:52:40;95929.44;;;-5.81;100.00
32933;BME280;19444;50.518;10.870;2022-11-20T05:55:37;95922.84;;;-5.65;100.00
32933;BME280;19444;50.518;10.870;2022-11-20T05:58:34;95919.97;;;-5.76;100.00
32933;BME280;19444;50.518;10.870;2022-11-20T06:01:32;95906.81;;;-5.87;100.00
32933;BME280;19444;50.518;10.870;2022-11-20T06:04:28;95908.63;;;-5.69;100.00
32933;BME280;19444;50.518;10.870;2022-11-20T06:07:25;95912.81;;;-5.68;100.00
32933;BME280;19444;50.518;10.870;2022-11-20T06:10:22;95907.75;;;-5.63;100.00
32933;BME280;19444;50.518;10.870;2022-11-20T06:13:19;95897.09;;;-5.62;100.00
32933;BME280;19444;50.518;10.870;2022-11-20T06:16:19;95900.03;;;-5.58;100.00
32933;BME280;19444;50.518;10.870;2022-11-20T06:19:16;95893.94;;;-5.52;100.00
32933;BME280;19444;50.518;10.870;2022-11-20T06:22:13;95903.84;;;-5.43;100.00
32933;BME280;19444;50.518;10.870;2022-11-20T06:25:10;95909.09;;;-5.43;100.00
32933;BME280;19444;50.518;10.870;2022-11-20T06:28:07;95906.00;;;-5.39;100.00
32933;BME280;19444;50.518;10.870;2022-11-20T06:31:06;95928.06;;;-5.35;100.00
32933;BME280;19444;50.518;10.870;2022-11-20T06:34:04;95918.03;;;-5.20;100.00
32933;BME280;19444;50.518;10.870;2022-11-20T06:37:02;95914.16;;;-5.18;100.00
32933;BME280;19444;50.518;10.870;2022-11-20T06:39:59;95913.59;;;-5.20;100.00
32933;BME280;19444;50.518;10.870;2022-11-20T06:42:56;95929.63;;;-5.16;100.00
32933;BME280;19444;50.518;10.870;2022-11-20T06:45:57;95922.72;;;-5.10;100.00
32933;BME280;19444;50.518;10.870;2022-11-20T06:48:54;95923.13;;;-5.13;100.00
32933;BME280;19444;50.518;10.870;2022-11-20T06:51:51;95923.50;;;-5.10;100.00
32933;BME280;19444;50.518;10.870;2022-11-20T06:54:48;95925.59;;;-5.00;100.00
32933;BME280;19444;50.518;10.870;2022-11-20T06:57:45;95916.00;;;-5.06;100.00
32933;BME280;19444;50.518;10.870;2022-11-20T07:00:44;95922.75;;;-4.99;100.00
32933;BME280;19444;50.518;10.870;2022-11-20T07:03:42;95920.34;;;-5.00;100.00
32933;BME280;19444;50.518;10.870;2022-11-20T07:06:39;95911.81;;;-5.07;100.00
32933;BME280;19444;50.518;10.870;2022-11-20T07:09:36;95925.69;;;-4.95;100.00
32933;BME280;19444;50.518;10.870;2022-11-20T07:12:33;95927.75;;;-4.86;100.00
32933;BME280;19444;50.518;10.870;2022-11-20T07:15:30;95921.31;;;-4.83;100.00
32933;BME280;19444;50.518;10.870;2022-11-20T07:18:27;95920.50;;;-4.83;100.00
32933;BME280;19444;50.518;10.870;2022-11-20T07:21:24;95923.38;;;-4.73;100.00
32933;BME280;19444;50.518;10.870;2022-11-20T07:24:20;95907.91;;;-4.75;100.00
32933;BME280;19444;50.518;10.870;2022-11-20T07:27:17;95905.16;;;-4.68;100.00
32933;BME280;19444;50.518;10.870;2022-11-20T07:30:15;95906.06;;;-4.86;100.00
32933;BME280;19444;50.518;10.870;2022-11-20T07:33:12;95888.34;;;-4.72;100.00
32933;BME280;19444;50.518;10.870;2022-11-20T07:36:09;95894.72;;;-4.68;100.00
32933;BME280;19444;50.518;10.870;2022-11-20T07:39:06;95903.94;;;-4.66;100.00
32933;BME280;19444;50.518;10.870;2022-11-20T07:42:03;95907.91;;;-4.63;100.00
32933;BME280;19444;50.518;10.870;2022-11-20T07:45:00;95904.59;;;-4.59;100.00
32933;BME280;19444;50.518;10.870;2022-11-20T07:47:57;95908.25;;;-4.60;100.00
32933;BME280;19444;50.518;10.870;2022-11-20T07:50:56;95903.38;;;-4.44;100.00
32933;BME280;19444;50.518;10.870;2022-11-20T07:53:53;95918.59;;;-4.53;100.00
32933;BME280;19444;50.518;10.870;2022-11-20T07:56:50;95925.31;;;-4.57;100.00
32933;BME280;19444;50.518;10.870;2022-11-20T07:59:46;95915.28;;;-4.48;100.00
32933;BME280;19444;50.518;10.870;2022-11-20T08:02:43;95910.06;;;-4.48;100.00
32933;BME280;19444;50.518;10.870;2022-11-20T08:05:40;95913.13;;;-4.40;100.00
32933;BME280;19444;50.518;10.870;2022-11-20T08:08:37;95909.38;;;-4.32;100.00
32933;BME280;19444;50.518;10.870;2022-11-20T08:11:38;95913.16;;;-4.28;100.00
32933;BME280;19444;50.518;10.870;2022-11-20T08:14:54;95903.28;;;-4.38;100.00
32933;BME280;19444;50.518;10.870;2022-11-20T08:18:06;95908.81;;;-4.11;100.00
32933;BME280;19444;50.518;10.870;2022-11-20T08:21:24;95902.81;;;-4.11;100.00
32933;BME280;19444;50.518;10.870;2022-11-20T08:24:21;95902.78;;;-3.99;100.00
32933;BME280;19444;50.518;10.870;2022-11-20T08:27:18;95913.00;;;-3.98;100.00
32933;BME280;19444;50.518;10.870;2022-11-20T08:30:15;95914.25;;;-3.89;100.00
32933;BME280;19444;50.518;10.870;2022-11-20T08:33:12;95916.41;;;-3.97;100.00
32933;BME280;19444;50.518;10.870;2022-11-20T08:36:09;95913.56;;;-3.96;100.00
32933;BME280;19444;50.518;10.870;2022-11-20T08:39:06;95924.03;;;-3.96;100.00
32933;BME280;19444;50.518;10.870;2022-11-20T08:42:07;95918.78;;;-3.84;100.00
32933;BME280;19444;50.518;10.870;2022-11-20T08:45:05;95924.91;;;-3.79;100.00
32933;BME280;19444;50.518;10.870;2022-11-20T08:48:03;95920.44;;;-3.66;100.00
32933;BME280;19444;50.518;10.870;2022-11-20T08:51:00;95920.56;;;-3.61;100.00
32933;BME280;19444;50.518;10.870;2022-11-20T08:53:57;95932.53;;;-3.65;100.00
32933;BME280;19444;50.518;10.870;2022-11-20T08:56:54;95916.53;;;-3.52;100.00
32933;BME280;19444;50.518;10.870;2022-11-20T08:59:51;95918.81;;;-3.44;100.00
32933;BME280;19444;50.518;10.870;2022-11-20T09:03:04;95917.66;;;-3.48;100.00
32933;BME280;19444;50.518;10.870;2022-11-20T09:06:05;95932.25;;;-3.52;100.00
32933;BME280;19444;50.518;10.870;2022-11-20T09:09:02;95908.69;;;-3.52;100.00
32933;BME280;19444;50.518;10.870;2022-11-20T09:12:03;95919.97;;;-3.52;100.00
32933;BME280;19444;50.518;10.870;2022-11-20T09:15:00;95909.16;;;-3.55;100.00
32933;BME280;19444;50.518;10.870;2022-11-20T09:18:02;95897.59;;;-3.42;100.00
32933;BME280;19444;50.518;10.870;2022-11-20T09:21:02;95893.03;;;-3.35;100.00
32933;BME280;19444;50.518;10.870;2022-11-20T09:23:59;95873.13;;;-3.20;100.00
32933;BME280;19444;50.518;10.870;2022-11-20T09:26:56;95865.75;;;-3.06;100.00
32933;BME280;19444;50.518;10.870;2022-11-20T09:29:53;95861.47;;;-2.95;100.00
32933;BME280;19444;50.518;10.870;2022-11-20T09:32:50;95868.16;;;-2.88;100.00
32933;BME280;19444;50.518;10.870;2022-11-20T09:35:47;95872.09;;;-3.19;100.00
32933;BME280;19444;50.518;10.870;2022-11-20T09:38:45;95899.25;;;-3.25;100.00
32933;BME280;19444;50.518;10.870;2022-11-20T09:42:10;95908.38;;;-3.27;100.00
32933;BME280;19444;50.518;10.870;2022-11-20T09:49:20;95895.22;;;-3.16;100.00
32933;BME280;19444;50.518;10.870;2022-11-20T09:52:55;95893.72;;;-2.95;100.00
32933;BME280;19444;50.518;10.870;2022-11-20T09:55:56;95894.06;;;-2.91;100.00
32933;BME280;19444;50.518;10.870;2022-11-20T09:59:01;95889.38;;;-2.89;100.00
32933;BME280;19444;50.518;10.870;2022-11-20T10:02:01;95890.69;;;-3.03;100.00
32933;BME280;19444;50.518;10.870;2022-11-20T10:05:23;95906.84;;;-2.95;100.00
32933;BME280;19444;50.518;10.870;2022-11-20T10:08:40;95905.34;;;-2.91;100.00
32933;BME280;19444;50.518;10.870;2022-11-20T10:25:36;95886.19;;;-2.74;100.00
32933;BME280;19444;50.518;10.870;2022-11-20T10:28:48;95885.19;;;-2.73;100.00
32933;BME280;19444;50.518;10.870;2022-11-20T10:32:02;95882.75;;;-2.75;100.00
32933;BME280;19444;50.518;10.870;2022-11-20T10:35:18;95884.69;;;-2.70;100.00
32933;BME280;19444;50.518;10.870;2022-11-20T10:38:25;95889.28;;;-2.61;100.00
32933;BME280;19444;50.518;10.870;2022-11-20T10:41:47;95890.56;;;-2.46;100.00
32933;BME280;19444;50.518;10.870;2022-11-20T10:45:01;95881.94;;;-2.25;100.00
32933;BME280;19444;50.518;10.870;2022-11-20T10:48:14;95876.56;;;-2.35;100.00
32933;BME280;19444;50.518;10.870;2022-11-20T10:51:44;95883.63;;;-2.36;100.00
32933;BME280;19444;50.518;10.870;2022-11-20T10:55:19;95869.13;;;-2.21;100.00
32933;BME280;19444;50.518;10.870;2022-11-20T11:01:30;95866.50;;;-2.21;100.00
32933;BME280;19444;50.518;10.870;2022-11-20T11:04:45;95873.19;;;-2.31;100.00
32933;BME280;19444;50.518;10.870;2022-11-20T11:07:42;95867.78;;;-2.24;100.00
32933;BME280;19444;50.518;10.870;2022-11-20T11:10:48;95860.91;;;-2.08;100.00
32933;BME280;19444;50.518;10.870;2022-11-20T11:13:48;95872.50;;;-2.26;100.00
32933;BME280;19444;50.518;10.870;2022-11-20T11:16:55;95863.41;;;-2.18;100.00
32933;BME280;19444;50.518;10.870;2022-11-20T11:20:00;95865.00;;;-2.17;100.00
32933;BME280;19444;50.518;10.870;2022-11-20T11:22:59;95859.13;;;-2.24;100.00
32933;BME280;19444;50.518;10.870;2022-11-20T11:25:59;95858.81;;;-2.28;100.00
32933;BME280;19444;50.518;10.870;2022-11-20T11:29:02;95856.75;;;-2.26;100.00
32933;BME280;19444;50.518;10.870;2022-11-20T11:32:14;95853.06;;;-2.25;100.00
32933;BME280;19444;50.518;10.870;2022-11-20T11:36:15;95846.28;;;-2.21;100.00
32933;BME280;19444;50.518;10.870;2022-11-20T11:39:15;95852.59;;;-2.22;100.00
32933;BME280;19444;50.518;10.870;2022-11-20T11:42:18;95848.22;;;-2.16;100.00
32933;BME280;19444;50.518;10.870;2022-11-20T11:45:16;95855.75;;;-2.20;100.00
32933;BME280;19444;50.518;10.870;2022-11-20T11:48:14;95844.53;;;-2.15;100.00
32933;BME280;19444;50.518;10.870;2022-11-20T11:51:11;95841.50;;;-2.07;100.00
32933;BME280;19444;50.518;10.870;2022-11-20T11:57:52;95834.13;;;-2.10;100.00
32933;BME280;19444;50.518;10.870;2022-11-20T12:01:10;95833.31;;;-2.11;100.00
32933;BME280;19444;50.518;10.870;2022-11-20T12:07:47;95832.66;;;-2.01;100.00
32933;BME280;19444;50.518;10.870;2022-11-20T12:11:45;95817.25;;;-1.92;100.00
32933;BME280;19444;50.518;10.870;2022-11-20T12:14:47;95825.69;;;-1.90;100.00
32933;BME280;19444;50.518;10.870;2022-11-20T12:17:46;95812.59;;;-1.85;100.00
32933;BME280;19444;50.518;10.870;2022-11-20T12:31:56;95812.69;;;-1.80;100.00
32933;BME280;19444;50.518;10.870;2022-11-20T12:42:31;95810.75;;;-1.63;100.00
32933;BME280;19444;50.518;10.870;2022-11-20T12:49:54;95812.28;;;-1.67;100.00
32933;BME280;19444;50.518;10.870;2022-11-20T12:56:31;95826.31;;;-1.56;100.00
32933;BME280;19444;50.518;10.870;2022-11-20T13:00:07;95805.97;;;-1.44;100.00
32933;BME280;19444;50.518;10.870;2022-11-20T13:06:19;95809.63;;;-1.45;100.00
32933;BME280;19444;50.518;10.870;2022-11-20T13:09:19;95803.31;;;-1.44;100.00
32933;BME280;19444;50.518;10.870;2022-11-20T13:12:40;95806.22;;;-1.46;100.00
32933;BME280;19444;50.518;10.870;2022-11-20T13:18:44;95805.50;;;-1.36;100.00
32933;BME280;19444;50.518;10.870;2022-11-20T13:21:48;95801.75;;;-1.45;100.00
32933;BME280;19444;50.518;10.870;2022-11-20T13:24:51;95796.34;;;-1.28;100.00
32933;BME280;19444;50.518;10.870;2022-11-20T13:27:48;95807.72;;;-1.23;100.00
32933;BME280;19444;50.518;10.870;2022-11-20T13:30:52;95798.75;;;-1.27;100.00
32933;BME280;19444;50.518;10.870;2022-11-20T13:33:53;95806.47;;;-1.15;100.00
32933;BME280;19444;50.518;10.870;2022-11-20T13:36:56;95801.94;;;-1.25;100.00
32933;BME280;19444;50.518;10.870;2022-11-20T13:43:40;95810.09;;;-1.21;100.00
32933;BME280;19444;50.518;10.870;2022-11-20T13:46:42;95810.50;;;-1.34;100.00
32933;BME280;19444;50.518;10.870;2022-11-20T13:49:40;95815.22;;;-1.36;100.00
32933;BME280;19444;50.518;10.870;2022-11-20T13:53:11;95815.47;;;-1.38;100.00
32933;BME280;19444;50.518;10.870;2022-11-20T13:56:38;95821.47;;;-1.42;100.00
32933;BME280;19444;50.518;10.870;2022-11-20T14:03:19;95818.06;;;-1.43;100.00
32933;BME280;19444;50.518;10.870;2022-11-20T14:06:45;95814.19;;;-1.35;100.00
32933;BME280;19444;50.518;10.870;2022-11-20T14:09:59;95824.34;;;-1.44;100.00
32933;BME280;19444;50.518;10.870;2022-11-20T14:12:56;95808.88;;;-1.40;100.00
32933;BME280;19444;50.518;10.870;2022-11-20T14:15:57;95808.06;;;-1.41;100.00
32933;BME280;19444;50.518;10.870;2022-11-20T14:18:55;95806.00;;;-1.39;100.00
32933;BME280;19444;50.518;10.870;2022-11-20T14:22:06;95813.41;;;-1.36;100.00
32933;BME280;19444;50.518;10.870;2022-11-20T14:28:26;95808.94;;;-1.35;100.00
32933;BME280;19444;50.518;10.870;2022-11-20T14:31:26;95815.22;;;-1.36;100.00
32933;BME280;19444;50.518;10.870;2022-11-20T14:34:35;95813.88;;;-1.39;100.00
32933;BME280;19444;50.518;10.870;2022-11-20T14:37:37;95817.00;;;-1.42;100.00
32933;BME280;19444;50.518;10.870;2022-11-20T14:40:36;95804.41;;;-1.40;100.00
32933;BME280;19444;50.518;10.870;2022-11-20T14:43:33;95801.25;;;-1.42;100.00
32933;BME280;19444;50.518;10.870;2022-11-20T14:46:33;95801.78;;;-1.40;100.00
32933;BME280;19444;50.518;10.870;2022-11-20T14:49:31;95800.25;;;-1.36;100.00
32933;BME280;19444;50.518;10.870;2022-11-20T14:52:28;95786.06;;;-1.35;100.00
32933;BME280;19444;50.518;10.870;2022-11-20T14:55:36;95775.56;;;-1.35;100.00
32933;BME280;19444;50.518;10.870;2022-11-20T14:58:34;95778.88;;;-1.45;100.00
32933;BME280;19444;50.518;10.870;2022-11-20T15:01:32;95780.38;;;-1.54;100.00
32933;BME280;19444;50.518;10.870;2022-11-20T15:04:29;95777.41;;;-1.62;100.00
32933;BME280;19444;50.518;10.870;2022-11-20T15:07:33;95780.84;;;-1.57;100.00
32933;BME280;19444;50.518;10.870;2022-11-20T15:10:31;95780.22;;;-1.69;100.00
32933;BME280;19444;50.518;10.870;2022-11-20T15:13:38;95767.44;;;-1.87;100.00
32933;BME280;19444;50.518;10.870;2022-11-20T15:16:35;95773.38;;;-1.97;100.00
32933;BME280;19444;50.518;10.870;2022-11-20T15:19:32;95785.19;;;-1.94;100.00
32933;BME280;19444;50.518;10.870;2022-11-20T15:22:31;95770.34;;;-1.84;100.00
32933;BME280;19444;50.518;10.870;2022-11-20T15:25:28;95776.94;;;-1.81;100.00
32933;BME280;19444;50.518;10.870;2022-11-20T15:28:42;95766.91;;;-1.84;100.00
32933;BME280;19444;50.518;10.870;2022-11-20T15:31:40;95767.16;;;-1.86;100.00
32933;BME280;19444;50.518;10.870;2022-11-20T15:34:39;95748.00;;;-1.86;100.00
32933;BME280;19444;50.518;10.870;2022-11-20T15:37:37;95752.56;;;-1.77;100.00
32933;BME280;19444;50.518;10.870;2022-11-20T15:40:35;95756.50;;;-1.74;100.00
32933;BME280;19444;50.518;10.870;2022-11-20T15:43:32;95755.72;;;-1.75;100.00
32933;BME280;19444;50.518;10.870;2022-11-20T15:46:32;95758.22;;;-1.63;100.00
32933;BME280;19444;50.518;10.870;2022-11-20T15:49:35;95754.75;;;-1.68;100.00
32933;BME280;19444;50.518;10.870;2022-11-20T15:52:32;95752.63;;;-1.72;100.00
32933;BME280;19444;50.518;10.870;2022-11-20T15:55:37;95762.13;;;-1.65;100.00
32933;BME280;19444;50.518;10.870;2022-11-20T15:58:34;95751.38;;;-1.64;100.00
32933;BME280;19444;50.518;10.870;2022-11-20T16:01:31;95747.41;;;-1.66;100.00
32933;BME280;19444;50.518;10.870;2022-11-20T16:04:28;95744.75;;;-1.72;100.00
32933;BME280;19444;50.518;10.870;2022-11-20T16:07:25;95754.91;;;-1.53;100.00
32933;BME280;19444;50.518;10.870;2022-11-20T16:10:23;95757.47;;;-1.58;100.00
32933;BME280;19444;50.518;10.870;2022-11-20T16:13:20;95752.53;;;-1.55;100.00
32933;BME280;19444;50.518;10.870;2022-11-20T16:16:37;95743.34;;;-1.52;100.00
32933;BME280;19444;50.518;10.870;2022-11-20T16:19:35;95753.34;;;-1.49;100.00
32933;BME280;19444;50.518;10.870;2022-11-20T16:22:32;95746.50;;;-1.50;100.00
32933;BME280;19444;50.518;10.870;2022-11-20T16:25:28;95749.19;;;-1.45;100.00
32933;BME280;19444;50.518;10.870;2022-11-20T16:28:25;95744.16;;;-1.47;100.00
32933;BME280;19444;50.518;10.870;2022-11-20T16:31:22;95746.41;;;-1.60;100.00
32933;BME280;19444;50.518;10.870;2022-11-20T16:34:19;95750.38;;;-1.58;100.00
32933;BME280;19444;50.518;10.870;2022-11-20T16:37:16;95742.56;;;-1.53;100.00
32933;BME280;19444;50.518;10.870;2022-11-20T16:40:13;95745.13;;;-1.58;100.00
32933;BME280;19444;50.518;10.870;2022-11-20T16:43:13;95741.25;;;-1.50;100.00
32933;BME280;19444;50.518;10.870;2022-11-20T16:46:10;95734.66;;;-1.53;100.00
32933;BME280;19444;50.518;10.870;2022-11-20T16:49:12;95730.16;;;-1.57;100.00
32933;BME280;19444;50.518;10.870;2022-11-20T16:52:09;95731.84;;;-1.46;100.00